createdAt,value
2023-02-05T00:00:13.067Z,103936.28
2023-02-05T00:02:17.627Z,103939.75
2023-02-05T00:04:22.314Z,103945.88
2023-02-05T00:06:27.493Z,103941.50
2023-02-05T00:08:31.938Z,103956.34
2023-02-05T00:10:36.945Z,103961.59
2023-02-05T00:12:42.280Z,103972.09
2023-02-05T00:14:48.909Z,103963.34
2023-02-05T00:16:54.004Z,103947.53
2023-02-05T00:18:58.453Z,103936.94
2023-02-05T00:21:03.152Z,103932.53
2023-02-05T00:23:08.561Z,103948.28
2023-02-05T00:25:13.230Z,103954.38
2023-02-05T00:27:18.045Z,103961.31
2023-02-05T00:29:22.452Z,103948.13
2023-02-05T00:31:29.273Z,103941.94
2023-02-05T00:33:34.168Z,103933.13
2023-02-05T00:35:38.909Z,103933.13
2023-02-05T00:37:43.497Z,103932.25
2023-02-05T00:39:47.881Z,103936.56
2023-02-05T00:41:52.969Z,103933.94
2023-02-05T00:43:57.316Z,103926.91
2023-02-05T00:46:02.037Z,103919.00
2023-02-05T00:48:08.951Z,103914.56
2023-02-05T00:50:13.452Z,103931.16
2023-02-05T00:52:18.632Z,103944.25
2023-02-05T00:54:23.348Z,103955.56
2023-02-05T00:56:27.805Z,103968.66
2023-02-05T00:58:32.389Z,103980.00
2023-02-05T01:00:37.137Z,103987.81
2023-02-05T01:02:41.443Z,103990.44
2023-02-05T01:04:46.729Z,103986.94
2023-02-05T01:06:51.362Z,103989.53
2023-02-05T01:08:55.780Z,104006.97
2023-02-05T01:11:00.736Z,104028.78
2023-02-05T01:13:05.935Z,104045.34
2023-02-05T01:15:17.828Z,104050.63
2023-02-05T01:17:23.653Z,104040.97
2023-02-05T01:19:28.519Z,104036.53
2023-02-05T01:21:37.040Z,104049.59
2023-02-05T01:23:41.992Z,104055.66
2023-02-05T01:25:49.918Z,104079.22
2023-02-05T01:27:54.700Z,104089.59
2023-02-05T01:29:59.155Z,104090.47
2023-02-05T01:32:03.938Z,104090.44
2023-02-05T01:34:08.854Z,104086.91
2023-02-05T01:36:13.238Z,104083.31
2023-02-05T01:38:20.045Z,104082.34
2023-02-05T01:40:24.978Z,104081.41
2023-02-05T01:42:32.563Z,104078.75
2023-02-05T01:44:38.297Z,104083.94
2023-02-05T01:46:45.819Z,104097.94
2023-02-05T01:48:57.141Z,104104.03
2023-02-05T01:51:03.235Z,104091.84
2023-02-05T01:53:10.829Z,104078.78
2023-02-05T01:55:20.371Z,104078.75
2023-02-05T01:57:26.995Z,104084.84
2023-02-05T01:59:35.687Z,104097.94
2023-02-05T02:01:42.667Z,104105.81
2023-02-05T02:03:47.908Z,104103.28
2023-02-05T02:05:52.949Z,104091.13
2023-02-05T02:07:58.458Z,104099.88
2023-02-05T02:10:03.693Z,104102.47
2023-02-05T02:12:10.898Z,104124.34
2023-02-05T02:14:18.614Z,104127.81
2023-02-05T02:16:26.712Z,104121.75
2023-02-05T02:18:35.133Z,104108.59
2023-02-05T02:20:43.686Z,104107.66
2023-02-05T02:23:11.976Z,104125.06
2023-02-05T02:25:49.613Z,104136.41
2023-02-05T02:28:00.478Z,104118.00
2023-02-05T02:30:13.855Z,104111.88
2023-02-05T02:32:22.854Z,104110.91
2023-02-05T02:34:33.903Z,104097.72
2023-02-05T02:36:45.971Z,104091.53
2023-02-05T02:38:56.305Z,104102.81
2023-02-05T02:41:07.420Z,104111.47
2023-02-05T02:43:17.284Z,104109.63
2023-02-05T02:45:25.921Z,104081.66
2023-02-05T02:47:34.279Z,104079.91
2023-02-05T02:49:43.546Z,104091.19
2023-02-05T02:51:51.725Z,104096.41
2023-02-05T02:53:59.084Z,104103.38
2023-02-05T02:56:05.644Z,104107.78
2023-02-05T02:58:18.597Z,104090.31
2023-02-05T03:00:25.869Z,104068.47
2023-02-05T03:02:35.214Z,104060.47
2023-02-05T03:04:41.814Z,104065.59
2023-02-05T03:06:50.110Z,104087.31
2023-02-05T03:08:57.714Z,104099.44
2023-02-05T03:11:05.231Z,104081.09
2023-02-05T03:13:10.344Z,104050.59
2023-02-05T03:15:17.546Z,104038.31
2023-02-05T03:17:23.045Z,104061.78
2023-02-05T03:19:27.858Z,104086.13
2023-02-05T03:21:36.553Z,104084.22
2023-02-05T03:23:41.306Z,104070.31
2023-02-05T03:25:45.729Z,104059.84
2023-02-05T03:27:50.681Z,104060.69
2023-02-05T03:29:57.824Z,104066.72
2023-02-05T03:32:16.528Z,104075.38
2023-02-05T03:34:32.158Z,104093.78
2023-02-05T03:36:47.776Z,104097.38
2023-02-05T03:39:06.172Z,104102.72
2023-02-05T03:41:22.453Z,104103.56
2023-02-05T03:43:38.877Z,104114.91
2023-02-05T03:45:53.127Z,104134.88
2023-02-05T03:48:11.553Z,104150.28
2023-02-05T03:50:24.058Z,104157.56
2023-02-05T03:52:33.041Z,104154.03
2023-02-05T03:54:45.993Z,104151.50
2023-02-05T03:57:00.963Z,104155.13
2023-02-05T03:59:07.368Z,104176.13
2023-02-05T04:01:13.434Z,104186.75
2023-02-05T04:03:21.073Z,104171.97
2023-02-05T04:05:25.742Z,104162.44
2023-02-05T04:07:32.688Z,104156.28
2023-02-05T04:09:37.601Z,104164.16
2023-02-05T04:11:42.468Z,104161.41
2023-02-05T04:13:47.101Z,104170.91
2023-02-05T04:15:51.869Z,104171.72
2023-02-05T04:17:57.974Z,104180.44
2023-02-05T04:20:06.190Z,104169.03
2023-02-05T04:22:09.457Z,104176.84
2023-02-05T04:24:16.610Z,104181.22
2023-02-05T04:26:21.150Z,104182.03
2023-02-05T04:28:34.469Z,104190.59
2023-02-05T04:30:40.875Z,104205.41
2023-02-05T04:32:46.736Z,104204.56
2023-02-05T04:34:53.504Z,104168.75
2023-02-05T04:36:58.380Z,104171.25
2023-02-05T04:39:04.081Z,104195.59
2023-02-05T04:41:08.882Z,104207.72
2023-02-05T04:43:12.102Z,104191.19
2023-02-05T04:45:15.426Z,104180.66
2023-02-05T04:47:18.699Z,104166.53
2023-02-05T04:49:22.194Z,104176.97
2023-02-05T04:51:25.533Z,104181.38
2023-02-05T04:53:30.238Z,104191.88
2023-02-05T04:55:34.361Z,104181.44
2023-02-05T04:57:38.315Z,104175.28
2023-02-05T04:59:43.323Z,104181.38
2023-02-05T05:01:46.761Z,104191.75
2023-02-05T05:03:50.551Z,104183.88
2023-02-05T05:05:54.016Z,104166.47
2023-02-05T05:07:57.354Z,104175.13
2023-02-05T05:10:02.069Z,104173.16
2023-02-05T05:12:05.718Z,104167.00
2023-02-05T05:14:09.089Z,104159.09
2023-02-05T05:16:13.373Z,104164.34
2023-02-05T05:18:16.677Z,104166.00
2023-02-05T05:20:20.177Z,104165.06
2023-02-05T05:22:23.363Z,104165.94
2023-02-05T05:24:26.665Z,104161.53
2023-02-05T05:26:31.557Z,104160.63
2023-02-05T05:28:35.033Z,104170.13
2023-02-05T05:30:40.027Z,104172.72
2023-02-05T05:32:43.508Z,104170.03
2023-02-05T05:34:46.811Z,104170.69
2023-02-05T05:36:50.177Z,104160.84
2023-02-05T05:38:53.771Z,104167.75
2023-02-05T05:41:14.714Z,104164.25
2023-02-05T05:43:39.065Z,104163.50
2023-02-05T05:45:42.332Z,104160.13
2023-02-05T05:47:45.791Z,104158.34
2023-02-05T05:49:49.207Z,104164.56
2023-02-05T05:51:52.686Z,104159.31
2023-02-05T05:53:56.535Z,104135.69
2023-02-05T05:56:00.032Z,104139.94
2023-02-05T05:58:03.610Z,104154.75
2023-02-05T06:00:10.247Z,104155.66
2023-02-05T06:02:16.657Z,104137.38
2023-02-05T06:04:20.381Z,104125.88
2023-02-05T06:06:24.060Z,104133.66
2023-02-05T06:08:27.661Z,104136.31
2023-02-05T06:10:33.173Z,104132.06
2023-02-05T06:12:37.000Z,104126.03
2023-02-05T06:14:40.539Z,104122.50
2023-02-05T06:16:45.605Z,104129.41
2023-02-05T06:18:49.294Z,104126.00
2023-02-05T06:20:52.853Z,104126.03
2023-02-05T06:22:56.762Z,104136.44
2023-02-05T06:25:00.355Z,104142.44
2023-02-05T06:27:03.933Z,104128.44
2023-02-05T06:29:07.686Z,104118.91
2023-02-05T06:31:11.477Z,104122.38
2023-02-05T06:33:16.456Z,104122.97
2023-02-05T06:35:20.214Z,104121.09
2023-02-05T06:37:34.185Z,104108.78
2023-02-05T06:39:49.540Z,104127.91
2023-02-05T06:41:53.083Z,104140.19
2023-02-05T06:43:56.635Z,104136.00
2023-02-05T06:46:00.120Z,104117.75
2023-02-05T06:48:03.570Z,104117.81
2023-02-05T06:50:08.971Z,104134.41
2023-02-05T06:52:12.718Z,104150.13
2023-02-05T06:54:16.255Z,104147.56
2023-02-05T06:56:20.264Z,104140.63
2023-02-05T06:58:23.983Z,104128.34
2023-02-05T07:00:27.790Z,104140.47
2023-02-05T07:02:31.897Z,104157.06
2023-02-05T07:04:35.967Z,104149.19
2023-02-05T07:06:41.180Z,104150.88
2023-02-05T07:08:44.922Z,104156.06
2023-02-05T07:10:48.618Z,104168.16
2023-02-05T07:12:52.313Z,104171.66
2023-02-05T07:14:56.080Z,104170.78
2023-02-05T07:16:59.737Z,104170.72
2023-02-05T07:19:03.239Z,104174.25
2023-02-05T07:21:08.314Z,104174.28
2023-02-05T07:23:13.164Z,104169.88
2023-02-05T07:25:16.890Z,104177.81
2023-02-05T07:27:20.538Z,104161.28
2023-02-05T07:29:24.049Z,104158.72
2023-02-05T07:31:27.581Z,104153.50
2023-02-05T07:33:31.106Z,104163.94
2023-02-05T07:35:38.120Z,104175.31
2023-02-05T07:37:41.397Z,104187.50
2023-02-05T07:39:46.056Z,104184.06
2023-02-05T07:41:49.303Z,104182.28
2023-02-05T07:44:02.370Z,104187.41
2023-02-05T07:46:07.918Z,104194.38
2023-02-05T07:48:11.311Z,104194.31
2023-02-05T07:50:14.882Z,104184.75
2023-02-05T07:52:18.208Z,104183.78
2023-02-05T07:54:21.449Z,104180.16
2023-02-05T07:56:26.778Z,104180.06
2023-02-05T07:58:29.802Z,104177.38
2023-02-05T08:00:33.021Z,104170.41
2023-02-05T08:02:36.293Z,104160.09
2023-02-05T08:04:39.586Z,104171.56
2023-02-05T08:06:43.279Z,104175.97
2023-02-05T08:08:46.516Z,104180.41
2023-02-05T08:10:49.791Z,104187.41
2023-02-05T08:12:54.418Z,104179.63
2023-02-05T08:14:57.641Z,104174.44
2023-02-05T08:17:01.036Z,104177.16
2023-02-05T08:19:04.368Z,104171.06
2023-02-05T08:21:07.865Z,104177.28
2023-02-05T08:23:11.168Z,104176.41
2023-02-05T08:25:16.174Z,104166.88
2023-02-05T08:27:19.574Z,104172.97
2023-02-05T08:29:24.583Z,104179.22
2023-02-05T08:31:28.088Z,104167.97
2023-02-05T08:33:31.464Z,104168.06
2023-02-05T08:35:35.241Z,104175.09
2023-02-05T08:37:38.703Z,104182.97
2023-02-05T08:39:42.046Z,104179.50
2023-02-05T08:41:45.474Z,104177.84
2023-02-05T08:43:51.089Z,104176.19
2023-02-05T08:45:55.923Z,104170.06
2023-02-05T08:47:59.722Z,104164.88
2023-02-05T08:50:03.014Z,104171.00
2023-02-05T08:52:06.702Z,104173.72
2023-02-05T08:54:13.428Z,104176.41
2023-02-05T08:56:19.968Z,104171.22
2023-02-05T08:58:24.222Z,104169.47
2023-02-05T09:00:28.406Z,104168.66
2023-02-05T09:02:34.114Z,104177.47
2023-02-05T09:04:37.530Z,104168.84
2023-02-05T09:06:41.541Z,104162.88
2023-02-05T09:08:45.125Z,104159.56
2023-02-05T09:10:48.498Z,104150.19
2023-02-05T09:12:53.356Z,104155.63
2023-02-05T09:14:56.928Z,104147.88
2023-02-05T09:17:00.816Z,104157.50
2023-02-05T09:19:06.148Z,104151.38
2023-02-05T09:21:11.172Z,104144.63
2023-02-05T09:23:17.816Z,104151.84
2023-02-05T09:25:22.236Z,104162.56
2023-02-05T09:27:26.871Z,104159.31
2023-02-05T09:29:31.341Z,104162.06
2023-02-05T09:31:35.945Z,104178.75
2023-02-05T09:33:40.380Z,104178.03
2023-02-05T09:35:47.190Z,104171.19
2023-02-05T09:37:53.048Z,104165.22
2023-02-05T09:40:19.985Z,104171.47
2023-02-05T09:42:35.186Z,104180.47
2023-02-05T09:44:51.598Z,104181.56
2023-02-05T09:47:06.205Z,104160.66
2023-02-05T09:49:19.159Z,104155.47
2023-02-05T09:51:33.249Z,104158.09
2023-02-05T09:53:42.685Z,104147.47
2023-02-05T09:55:49.328Z,104146.69
2023-02-05T09:57:55.368Z,104163.38
2023-02-05T10:00:00.268Z,104149.63
2023-02-05T10:02:15.960Z,104155.91
2023-02-05T10:04:20.153Z,104150.00
2023-02-05T10:06:40.636Z,104154.44
2023-02-05T10:08:55.116Z,104143.94
2023-02-05T10:10:59.794Z,104137.94
2023-02-05T10:13:30.706Z,104134.63
2023-02-05T10:15:49.041Z,104141.84
2023-02-05T10:18:03.623Z,104158.69
2023-02-05T10:20:24.812Z,104138.72
2023-02-05T10:22:36.274Z,104125.81
2023-02-05T10:25:03.979Z,104145.25
2023-02-05T10:27:16.552Z,104153.38
2023-02-05T10:29:34.267Z,104157.91
2023-02-05T10:31:45.165Z,104163.25
2023-02-05T10:33:51.905Z,104149.19
2023-02-05T10:36:07.069Z,104156.22
2023-02-05T10:38:18.885Z,104143.94
2023-02-05T10:40:26.116Z,104140.34
2023-02-05T10:42:35.791Z,104163.13
2023-02-05T10:44:45.594Z,104152.66
2023-02-05T10:46:54.609Z,104170.19
2023-02-05T10:49:06.148Z,104150.97
2023-02-05T10:51:14.636Z,104140.47
2023-02-05T10:53:23.325Z,104156.28
2023-02-05T10:55:28.669Z,104154.66
2023-02-05T10:57:37.324Z,104157.38
2023-02-05T10:59:51.122Z,104158.41
2023-02-05T11:01:58.064Z,104150.63
2023-02-05T11:04:05.508Z,104147.16
2023-02-05T11:06:12.064Z,104153.34
2023-02-05T11:08:35.454Z,104152.47
2023-02-05T11:10:39.270Z,104142.03
2023-02-05T11:12:46.424Z,104134.16
2023-02-05T11:14:58.948Z,104140.38
2023-02-05T11:17:08.699Z,104143.88
2023-02-05T11:19:23.241Z,104139.53
2023-02-05T11:21:48.578Z,104134.25
2023-02-05T11:23:58.881Z,104136.00
2023-02-05T11:26:08.907Z,104126.38
2023-02-05T11:28:23.290Z,104119.34
2023-02-05T11:30:50.057Z,104131.66
2023-02-05T11:32:54.613Z,104119.44
2023-02-05T11:35:10.996Z,104126.53
2023-02-05T11:37:19.071Z,104127.47
2023-02-05T11:39:34.378Z,104130.94
2023-02-05T11:41:49.363Z,104127.38
2023-02-05T11:43:54.712Z,104135.28
2023-02-05T11:46:01.610Z,104132.66
2023-02-05T11:48:08.789Z,104137.97
2023-02-05T11:50:23.457Z,104138.00
2023-02-05T11:52:32.256Z,104132.78
2023-02-05T11:54:39.824Z,104136.38
2023-02-05T11:56:43.736Z,104131.16
2023-02-05T11:59:00.102Z,104130.28
2023-02-05T12:01:07.164Z,104127.69
2023-02-05T12:03:19.818Z,104123.31
2023-02-05T12:05:27.973Z,104129.50
2023-02-05T12:07:37.225Z,104129.50
2023-02-05T12:09:43.681Z,104128.59
2023-02-05T12:12:11.698Z,104125.94
2023-02-05T12:14:24.747Z,104099.63
2023-02-05T12:16:41.995Z,104094.38
2023-02-05T12:18:58.386Z,104101.44
2023-02-05T12:21:15.089Z,104097.97
2023-02-05T12:23:35.343Z,104096.25
2023-02-05T12:25:50.297Z,104088.34
2023-02-05T12:28:11.866Z,104097.16
2023-02-05T12:30:32.760Z,104090.13
2023-02-05T12:32:46.338Z,104098.03
2023-02-05T12:35:12.354Z,104091.03
2023-02-05T12:37:30.047Z,104081.41
2023-02-05T12:39:39.173Z,104081.41
2023-02-05T12:41:56.066Z,104082.31
2023-02-05T12:44:10.961Z,104078.81
2023-02-05T12:46:31.833Z,104070.94
2023-02-05T12:49:02.860Z,104068.28
2023-02-05T12:51:22.082Z,104061.25
2023-02-05T12:53:51.512Z,104050.72
2023-02-05T12:56:24.990Z,104046.31
2023-02-05T12:58:39.267Z,104049.84
2023-02-05T13:00:48.996Z,104047.22
2023-02-05T13:03:02.076Z,104045.47
2023-02-05T13:05:19.580Z,104047.22
2023-02-05T13:07:27.957Z,104036.69
2023-02-05T13:09:38.669Z,104035.78
2023-02-05T13:11:47.855Z,104029.66
2023-02-05T13:13:57.790Z,104034.06
2023-02-05T13:16:06.783Z,104039.34
2023-02-05T13:18:17.029Z,104037.59
2023-02-05T13:20:47.124Z,104035.88
2023-02-05T13:23:14.336Z,104039.41
2023-02-05T13:25:40.861Z,104026.25
2023-02-05T13:28:07.196Z,104030.66
2023-02-05T13:30:18.473Z,104036.78
2023-02-05T13:32:31.595Z,104031.53
2023-02-05T13:34:36.009Z,104030.66
2023-02-05T13:37:31.109Z,104024.53
2023-02-05T13:39:58.824Z,104022.81
2023-02-05T13:42:26.251Z,104020.16
2023-02-05T13:44:54.676Z,104014.03
2023-02-05T13:47:23.138Z,104000.91
2023-02-05T13:49:59.401Z,103994.78
2023-02-05T13:52:39.463Z,104000.06
2023-02-05T13:55:09.017Z,103991.31
2023-02-05T13:57:38.735Z,103993.97
2023-02-05T13:59:46.798Z,103995.75
2023-02-05T14:01:56.574Z,103994.00
2023-02-05T14:04:05.877Z,103991.38
2023-02-05T14:06:24.374Z,103985.25
2023-02-05T14:08:40.050Z,103977.38
2023-02-05T14:10:48.673Z,103979.13
2023-02-05T14:12:56.427Z,103969.47
2023-02-05T14:15:18.632Z,103971.25
2023-02-05T14:17:54.844Z,103964.22
2023-02-05T14:20:05.818Z,103960.72
2023-02-05T14:22:14.256Z,103959.81
2023-02-05T14:24:30.634Z,103954.53
2023-02-05T14:26:48.652Z,103951.91
2023-02-05T14:28:54.651Z,103953.66
2023-02-05T14:30:59.843Z,103955.41
2023-02-05T14:33:07.382Z,103944.00
2023-02-05T14:35:32.068Z,103936.94
2023-02-05T14:37:42.571Z,103935.19
2023-02-05T14:39:46.745Z,103932.56
2023-02-05T14:41:56.394Z,103933.44
2023-02-05T14:44:03.408Z,103922.00
2023-02-05T14:46:21.554Z,103919.34
2023-02-05T14:48:29.112Z,103921.97
2023-02-05T14:50:34.985Z,103912.28
2023-02-05T14:52:42.612Z,103905.22
2023-02-05T14:54:50.687Z,103905.25
2023-02-05T14:57:10.070Z,103893.81
2023-02-05T14:59:23.714Z,103893.81
2023-02-05T15:01:54.606Z,103897.31
2023-02-05T15:04:00.669Z,103899.09
2023-02-05T15:06:15.753Z,103904.41
2023-02-05T15:08:25.770Z,103906.16
2023-02-05T15:10:37.052Z,103909.66
2023-02-05T15:13:02.430Z,103904.41
2023-02-05T15:15:29.254Z,103907.03
2023-02-05T15:17:59.647Z,103899.13
2023-02-05T15:20:17.437Z,103889.47
2023-02-05T15:22:28.236Z,103888.56
2023-02-05T15:24:34.936Z,103887.69
2023-02-05T15:26:44.245Z,103894.75
2023-02-05T15:28:57.784Z,103887.69
2023-02-05T15:31:16.695Z,103897.38
2023-02-05T15:33:31.614Z,103888.59
2023-02-05T15:35:37.881Z,103886.84
2023-02-05T15:37:50.583Z,103885.06
2023-02-05T15:39:57.735Z,103899.13
2023-02-05T15:42:05.171Z,103893.88
2023-02-05T15:44:22.457Z,103896.50
2023-02-05T15:46:26.467Z,103898.25
2023-02-05T15:48:33.118Z,103892.09
2023-02-05T15:50:46.736Z,103891.25
2023-02-05T15:52:53.465Z,103892.97
2023-02-05T15:55:01.000Z,103900.03
2023-02-05T15:57:07.310Z,103897.41
2023-02-05T15:59:19.051Z,103900.91
2023-02-05T16:01:25.798Z,103903.56
2023-02-05T16:03:34.461Z,103905.31
2023-02-05T16:05:39.189Z,103908.81
2023-02-05T16:07:48.541Z,103908.84
2023-02-05T16:09:56.369Z,103903.56
2023-02-05T16:12:13.130Z,103907.06
2023-02-05T16:14:19.077Z,103899.16
2023-02-05T16:16:24.585Z,103891.25
2023-02-05T16:18:38.710Z,103885.97
2023-02-05T16:20:48.696Z,103893.00
2023-02-05T16:22:57.340Z,103890.38
2023-02-05T16:25:09.250Z,103880.69
2023-02-05T16:27:18.679Z,103880.69
2023-02-05T16:29:31.604Z,103878.09
2023-02-05T16:31:39.331Z,103866.66
2023-02-05T16:33:48.015Z,103867.53
2023-02-05T16:35:52.222Z,103866.63
2023-02-05T16:37:57.251Z,103866.66
2023-02-05T16:40:03.892Z,103871.91
2023-02-05T16:42:09.100Z,103869.28
2023-02-05T16:44:30.082Z,103865.75
2023-02-05T16:46:34.865Z,103861.34
2023-02-05T16:48:41.843Z,103867.47
2023-02-05T16:50:46.196Z,103854.28
2023-02-05T16:52:59.684Z,103858.66
2023-02-05T16:55:09.892Z,103856.84
2023-02-05T16:57:17.684Z,103859.50
2023-02-05T16:59:25.606Z,103855.97
2023-02-05T17:01:33.951Z,103856.81
2023-02-05T17:03:41.233Z,103855.06
2023-02-05T17:05:45.931Z,103850.66
2023-02-05T17:07:56.825Z,103853.25
2023-02-05T17:10:16.390Z,103851.47
2023-02-05T17:12:39.405Z,103850.56
2023-02-05T17:14:55.853Z,103855.81
2023-02-05T17:17:01.508Z,103858.41
2023-02-05T17:19:07.519Z,103863.66
2023-02-05T17:21:29.769Z,103854.84
2023-02-05T17:23:33.957Z,103859.19
2023-02-05T17:25:42.829Z,103861.81
2023-02-05T17:27:47.910Z,103860.91
2023-02-05T17:29:53.096Z,103859.13
2023-02-05T17:31:58.390Z,103867.84
2023-02-05T17:34:02.644Z,103866.94
2023-02-05T17:36:07.461Z,103868.63
2023-02-05T17:38:11.988Z,103856.34
2023-02-05T17:40:17.066Z,103862.44
2023-02-05T17:42:25.696Z,103864.13
2023-02-05T17:44:30.336Z,103864.09
2023-02-05T17:46:34.654Z,103864.91
2023-02-05T17:48:40.081Z,103864.88
2023-02-05T17:50:44.210Z,103858.69
2023-02-05T17:52:48.848Z,103856.03
2023-02-05T17:54:53.052Z,103863.00
2023-02-05T17:57:03.026Z,103864.56
2023-02-05T17:59:12.337Z,103860.03
2023-02-05T18:01:16.723Z,103866.09
2023-02-05T18:03:20.664Z,103873.97
2023-02-05T18:05:25.298Z,103866.09
2023-02-05T18:07:33.442Z,103866.13
2023-02-05T18:09:37.842Z,103858.25
2023-02-05T18:11:43.178Z,103864.44
2023-02-05T18:13:47.317Z,103861.81
2023-02-05T18:15:54.666Z,103873.97
2023-02-05T18:17:58.345Z,103881.75
2023-02-05T18:20:03.038Z,103870.28
2023-02-05T18:22:07.792Z,103869.41
2023-02-05T18:24:11.890Z,103865.94
2023-02-05T18:26:15.758Z,103860.63
2023-02-05T18:28:19.269Z,103866.72
2023-02-05T18:30:23.327Z,103861.44
2023-02-05T18:32:28.712Z,103857.84
2023-02-05T18:34:32.647Z,103862.22
2023-02-05T18:36:36.422Z,103863.06
2023-02-05T18:38:40.763Z,103857.78
2023-02-05T18:40:45.093Z,103857.75
2023-02-05T18:42:52.081Z,103851.56
2023-02-05T18:44:56.554Z,103845.34
2023-02-05T18:47:00.424Z,103845.34
2023-02-05T18:49:05.387Z,103854.91
2023-02-05T18:51:10.878Z,103844.41
2023-02-05T18:53:15.483Z,103842.63
2023-02-05T18:55:19.201Z,103834.69
2023-02-05T18:57:23.433Z,103836.41
2023-02-05T18:59:27.187Z,103836.38
2023-02-05T19:01:32.294Z,103836.25
2023-02-05T19:03:35.778Z,103838.78
2023-02-05T19:05:41.060Z,103841.34
2023-02-05T19:07:46.537Z,103841.25
2023-02-05T19:09:52.122Z,103841.13
2023-02-05T19:11:56.490Z,103838.41
2023-02-05T19:14:03.248Z,103838.38
2023-02-05T19:16:09.185Z,103837.34
2023-02-05T19:18:12.893Z,103829.41
2023-02-05T19:20:16.683Z,103837.28
2023-02-05T19:22:22.294Z,103837.34
2023-02-05T19:24:26.539Z,103837.38
2023-02-05T19:26:31.930Z,103843.50
2023-02-05T19:28:36.156Z,103839.91
2023-02-05T19:30:40.114Z,103843.94
2023-02-05T19:32:44.388Z,103835.94
2023-02-05T19:34:48.175Z,103845.56
2023-02-05T19:36:52.036Z,103841.28
2023-02-05T19:38:57.887Z,103844.00
2023-02-05T19:41:07.357Z,103842.34
2023-02-05T19:43:10.926Z,103846.66
2023-02-05T19:45:14.742Z,103848.41
2023-02-05T19:47:18.527Z,103851.88
2023-02-05T19:49:23.660Z,103850.16
2023-02-05T19:51:28.130Z,103849.28
2023-02-05T19:53:32.320Z,103850.06
2023-02-05T19:55:37.897Z,103852.66
2023-02-05T19:57:43.091Z,103856.13
2023-02-05T19:59:46.755Z,103850.03
2023-02-05T20:01:51.201Z,103850.03
2023-02-05T20:03:57.082Z,103860.47
2023-02-05T20:06:05.153Z,103854.31
2023-02-05T20:08:09.069Z,103840.34
2023-02-05T20:10:13.208Z,103842.06
2023-02-05T20:12:18.674Z,103836.81
2023-02-05T20:14:23.136Z,103835.94
2023-02-05T20:16:26.854Z,103837.59
2023-02-05T20:18:31.092Z,103838.41
2023-02-05T20:20:34.962Z,103832.34
2023-02-05T20:22:38.573Z,103833.19
2023-02-05T20:24:42.852Z,103828.75
2023-02-05T20:26:48.674Z,103822.56
2023-02-05T20:29:14.189Z,103821.66
2023-02-05T20:31:41.561Z,103825.13
2023-02-05T20:33:45.683Z,103822.50
2023-02-05T20:35:49.412Z,103823.41
2023-02-05T20:37:53.208Z,103819.88
2023-02-05T20:39:57.793Z,103811.97
2023-02-05T20:42:01.768Z,103809.31
2023-02-05T20:44:07.422Z,103808.34
2023-02-05T20:46:12.182Z,103804.78
2023-02-05T20:48:16.027Z,103807.41
2023-02-05T20:50:19.958Z,103801.25
2023-02-05T20:52:23.744Z,103799.44
2023-02-05T20:54:27.309Z,103794.13
2023-02-05T20:56:32.430Z,103799.34
2023-02-05T20:58:36.655Z,103791.31
2023-02-05T21:00:42.100Z,103789.22
2023-02-05T21:02:46.243Z,103788.34
2023-02-05T21:04:52.385Z,103793.63
2023-02-05T21:06:56.297Z,103792.59
2023-02-05T21:09:00.301Z,103793.13
2023-02-05T21:11:03.905Z,103787.84
2023-02-05T21:13:07.330Z,103785.31
2023-02-05T21:15:11.130Z,103786.31
2023-02-05T21:17:16.233Z,103790.81
2023-02-05T21:19:19.943Z,103780.44
2023-02-05T21:21:25.342Z,103788.34
2023-02-05T21:23:28.809Z,103788.38
2023-02-05T21:25:32.560Z,103780.59
2023-02-05T21:27:36.428Z,103784.13
2023-02-05T21:29:40.389Z,103781.56
2023-02-05T21:31:47.203Z,103777.19
2023-02-05T21:33:53.114Z,103778.94
2023-02-05T21:35:57.456Z,103786.75
2023-02-05T21:38:02.549Z,103790.16
2023-02-05T21:40:09.694Z,103785.72
2023-02-05T21:42:13.651Z,103787.44
2023-02-05T21:44:17.433Z,103788.34
2023-02-05T21:46:22.431Z,103789.19
2023-02-05T21:48:26.402Z,103794.34
2023-02-05T21:50:31.684Z,103796.91
2023-02-05T21:52:35.289Z,103792.50
2023-02-05T21:54:39.022Z,103795.97
2023-02-05T21:56:44.692Z,103793.25
2023-02-05T21:58:48.222Z,103789.72
2023-02-05T22:00:51.923Z,103794.94
2023-02-05T22:02:57.654Z,103794.91
2023-02-05T22:05:01.130Z,103792.31
2023-02-05T22:07:06.203Z,103788.78
2023-02-05T22:09:13.079Z,103788.75
2023-02-05T22:11:16.972Z,103792.19
2023-02-05T22:13:20.620Z,103790.47
2023-02-05T22:15:24.685Z,103787.84
2023-02-05T22:17:28.521Z,103785.22
2023-02-05T22:19:32.354Z,103786.13
2023-02-05T22:21:37.633Z,103788.78
2023-02-05T22:23:44.345Z,103787.06
2023-02-05T22:25:48.882Z,103780.09
2023-02-05T22:27:53.155Z,103779.25
2023-02-05T22:29:57.301Z,103781.81
2023-02-05T22:32:01.352Z,103778.28
2023-02-05T22:34:06.260Z,103777.38
2023-02-05T22:36:13.524Z,103776.50
2023-02-05T22:38:17.109Z,103771.22
2023-02-05T22:40:22.209Z,103779.06
2023-02-05T22:42:27.124Z,103775.53
2023-02-05T22:44:31.480Z,103778.09
2023-02-05T22:46:39.459Z,103772.81
2023-02-05T22:48:45.054Z,103770.13
2023-02-05T22:50:48.609Z,103774.44
2023-02-05T22:52:53.074Z,103781.34
2023-02-05T22:54:56.708Z,103776.91
2023-02-05T22:57:01.809Z,103777.75
2023-02-05T22:59:05.907Z,103785.56
2023-02-05T23:01:11.089Z,103783.78
2023-02-05T23:03:14.668Z,103783.75
2023-02-05T23:05:18.781Z,103780.28
2023-02-05T23:07:22.522Z,103780.28
2023-02-05T23:09:26.375Z,103782.00
2023-02-05T23:11:32.023Z,103777.59
2023-02-05T23:13:37.163Z,103775.88
2023-02-05T23:15:40.866Z,103769.75
2023-02-05T23:17:44.640Z,103773.22
2023-02-05T23:19:52.610Z,103771.41
2023-02-05T23:21:56.514Z,103773.06
2023-02-05T23:24:01.778Z,103776.56
2023-02-05T23:26:10.089Z,103767.81
2023-02-05T23:28:13.641Z,103766.03
2023-02-05T23:30:19.295Z,103759.91
2023-02-05T23:32:22.934Z,103758.13
2023-02-05T23:34:27.033Z,103769.41
2023-02-05T23:36:31.526Z,103770.28
2023-02-05T23:38:35.708Z,103770.38
2023-02-05T23:40:39.279Z,103768.66
2023-02-05T23:42:43.290Z,103771.25
2023-02-05T23:44:48.581Z,103766.88
2023-02-05T23:46:55.168Z,103773.03
2023-02-05T23:49:00.336Z,103771.28
2023-02-05T23:51:04.961Z,103767.84
2023-02-05T23:53:08.919Z,103769.63
2023-02-05T23:55:13.719Z,103768.72
2023-02-05T23:57:18.899Z,103763.50
2023-02-05T23:59:23.026Z,103760.88
